Time;durP1;ratioP1;P1;durP2;ratioP2;P2;SDS_P1;SDS_P2;PMS_P1;PMS_P2;Temp;Humidity;BMP_temperature;BMP_pressure;BME280_temperature;BME280_humidity;BME280_pressure;Samples;Min_cycle;Max_cycle;Signal;HPM_P1;HPM_P2
2023/04/30 00:01:41;;;;;;;12.05;3.65;;;8.50;99.90;;;;;;5035137;28;20045;-70
2023/04/30 00:04:06;;;;;;;10.35;4.40;;;8.50;99.90;;;;;;5035108;28;20040;-70
2023/04/30 00:06:32;;;;;;;10.25;3.75;;;8.40;99.90;;;;;;5035210;28;20037;-69
2023/04/30 00:08:58;;;;;;;9.88;4.20;;;8.40;99.90;;;;;;5035328;28;20049;-69
2023/04/30 00:11:24;;;;;;;7.25;4.18;;;8.40;99.90;;;;;;5018876;28;20379;-69
2023/04/30 00:13:50;;;;;;;8.18;3.95;;;8.30;99.90;;;;;;5034996;28;20041;-69
2023/04/30 00:16:16;;;;;;;10.32;3.70;;;8.30;99.90;;;;;;5034853;28;20076;-69
2023/04/30 00:18:42;;;;;;;8.10;3.50;;;8.30;99.90;;;;;;5034937;28;20129;-69
2023/04/30 00:21:08;;;;;;;9.20;3.85;;;8.30;99.90;;;;;;5035306;28;20076;-69
2023/04/30 00:23:33;;;;;;;8.20;3.22;;;8.30;99.90;;;;;;5035216;28;20497;-69
2023/04/30 00:25:59;;;;;;;8.02;3.35;;;8.30;99.90;;;;;;5053292;28;20549;-69
2023/04/30 00:28:25;;;;;;;8.20;3.40;;;8.40;99.90;;;;;;5034971;28;20044;-69
2023/04/30 00:30:50;;;;;;;8.63;3.80;;;8.40;99.90;;;;;;5037631;28;20536;-69
2023/04/30 00:33:16;;;;;;;12.05;3.67;;;8.30;99.90;;;;;;5039096;28;20093;-69
2023/04/30 00:35:42;;;;;;;11.50;3.55;;;8.30;99.90;;;;;;5022323;28;20497;-69
2023/04/30 00:38:07;;;;;;;9.00;3.35;;;8.30;99.90;;;;;;5038773;28;20045;-69
2023/04/30 00:40:34;;;;;;;6.05;3.55;;;8.20;99.90;;;;;;5039020;28;20037;-69
2023/04/30 00:43:00;;;;;;;9.50;3.70;;;8.20;99.90;;;;;;5038734;28;20464;-69
2023/04/30 00:45:26;;;;;;;11.50;3.88;;;8.10;99.90;;;;;;5038627;28;20045;-69
2023/04/30 00:47:51;;;;;;;10.90;3.65;;;8.00;99.90;;;;;;5038438;28;20432;-69
2023/04/30 00:50:17;;;;;;;11.13;4.13;;;8.00;99.90;;;;;;5038579;28;20041;-69
2023/04/30 00:52:43;;;;;;;9.82;3.78;;;8.00;99.90;;;;;;5038730;28;20043;-69
2023/04/30 00:55:12;;;;;;;10.45;3.53;;;7.90;99.90;;;;;;5038401;28;20045;-69
2023/04/30 00:57:39;;;;;;;9.63;3.33;;;8.00;99.90;;;;;;5038558;28;20440;-69
2023/04/30 01:00:09;;;;;;;6.65;3.42;;;7.90;99.90;;;;;;5038366;28;20408;-70
2023/04/30 01:02:36;;;;;;;9.15;2.90;;;7.90;99.90;;;;;;5038655;28;20494;-70
2023/04/30 01:05:03;;;;;;;7.80;3.25;;;7.80;99.90;;;;;;5038504;28;20045;-70
2023/04/30 01:07:30;;;;;;;10.07;3.38;;;7.80;99.90;;;;;;5056308;28;20065;-70
2023/04/30 01:09:56;;;;;;;9.23;3.47;;;7.80;99.90;;;;;;5038174;28;20045;-70
2023/04/30 01:12:33;;;;;;;7.10;3.15;;;7.70;99.90;;;;;;5038157;28;20106;-70
2023/04/30 01:15:14;;;;;;;10.20;3.90;;;7.70;99.90;;;;;;5038000;28;20077;-70
2023/04/30 01:18:04;;;;;;;7.35;2.80;;;7.70;99.90;;;;;;5038126;28;20076;-70
2023/04/30 01:20:32;;;;;;;7.60;3.33;;;7.70;99.90;;;;;;5038031;28;20203;-70
2023/04/30 01:23:34;;;;;;;9.27;3.38;;;7.60;99.90;;;;;;5037989;28;20044;-70
2023/04/30 01:26:12;;;;;;;8.20;3.72;;;7.60;99.90;;;;;;5037931;28;20095;-70
2023/04/30 01:28:41;;;;;;;8.27;3.53;;;7.60;99.90;;;;;;5037804;28;20048;-70
2023/04/30 01:31:15;;;;;;;7.53;3.10;;;7.50;99.90;;;;;;5037823;28;20106;-70
2023/04/30 01:33:41;;;;;;;8.65;3.53;;;7.50;99.90;;;;;;5037721;28;20059;-70
2023/04/30 01:36:10;;;;;;;10.45;3.70;;;7.50;99.90;;;;;;5021154;28;20083;-70
2023/04/30 01:38:38;;;;;;;8.43;3.97;;;7.50;99.90;;;;;;5021427;28;20036;-70
2023/04/30 01:41:29;;;;;;;7.32;3.38;;;7.40;99.90;;;;;;5037292;28;20045;-70
2023/04/30 01:44:09;;;;;;;9.80;3.78;;;7.40;99.90;;;;;;5037905;28;20045;-70
2023/04/30 01:46:35;;;;;;;9.70;3.70;;;7.40;99.90;;;;;;5037426;28;20045;-70
2023/04/30 01:49:14;;;;;;;5.70;3.17;;;7.30;99.90;;;;;;5037749;28;20106;-70
2023/04/30 01:51:42;;;;;;;8.00;3.65;;;7.40;99.90;;;;;;5037486;28;20087;-70
2023/04/30 01:54:49;;;;;;;9.70;3.80;;;7.30;99.90;;;;;;5037318;28;20045;-70
2023/04/30 01:57:30;;;;;;;12.52;3.38;;;7.30;99.90;;;;;;5036704;28;20051;-70
2023/04/30 01:59:56;;;;;;;7.70;3.35;;;7.30;99.90;;;;;;5037283;28;20509;-70
2023/04/30 02:02:21;;;;;;;9.95;3.75;;;7.20;99.90;;;;;;5037235;28;20125;-70
2023/04/30 02:04:47;;;;;;;8.30;3.50;;;7.20;99.90;;;;;;5037177;28;20037;-70
2023/04/30 02:07:28;;;;;;;9.55;3.70;;;7.20;99.90;;;;;;5037431;28;20045;-70
2023/04/30 02:09:53;;;;;;;7.18;3.33;;;7.20;99.90;;;;;;5037151;28;20052;-70
2023/04/30 02:12:19;;;;;;;7.35;3.35;;;7.10;99.90;;;;;;5037315;28;20040;-70
2023/04/30 02:14:45;;;;;;;8.68;3.08;;;7.10;99.90;;;;;;5036889;28;20083;-70
2023/04/30 02:17:11;;;;;;;6.93;3.78;;;7.00;99.90;;;;;;5037140;28;20120;-70
2023/04/30 02:19:36;;;;;;;7.05;3.03;;;7.00;99.90;;;;;;5055358;28;20064;-70
2023/04/30 02:22:02;;;;;;;8.02;3.10;;;7.00;99.90;;;;;;5036832;28;20045;-70
2023/04/30 02:24:27;;;;;;;6.63;2.85;;;7.00;99.90;;;;;;5036835;28;20047;-70
2023/04/30 02:26:53;;;;;;;8.05;3.25;;;7.00;99.90;;;;;;5036763;28;20048;-70
2023/04/30 02:29:18;;;;;;;6.72;2.80;;;6.90;99.90;;;;;;5036772;28;20048;-70
2023/04/30 02:31:44;;;;;;;6.05;2.90;;;6.90;99.90;;;;;;5036671;28;20098;-70
2023/04/30 02:34:10;;;;;;;8.77;3.00;;;6.90;99.90;;;;;;5020085;28;20037;-70
2023/04/30 02:36:35;;;;;;;6.85;2.83;;;6.80;99.90;;;;;;5036554;28;20136;-69
2023/04/30 02:39:01;;;;;;;6.28;3.25;;;6.70;99.90;;;;;;5054303;28;20044;-69
2023/04/30 02:41:27;;;;;;;7.70;2.60;;;6.70;99.90;;;;;;5036511;28;20116;-69
2023/04/30 02:43:53;;;;;;;7.28;3.30;;;6.60;99.90;;;;;;5036495;28;20090;-69
2023/04/30 02:46:18;;;;;;;6.65;2.50;;;6.60;99.90;;;;;;5036246;28;20126;-69
2023/04/30 02:48:44;;;;;;;8.07;2.83;;;6.50;99.90;;;;;;5020930;28;20051;-69
2023/04/30 02:51:09;;;;;;;8.60;2.63;;;6.50;99.90;;;;;;5036317;28;20413;-69
2023/04/30 02:53:35;;;;;;;8.48;2.95;;;6.50;99.90;;;;;;5035275;28;20045;-69
2023/04/30 02:56:00;;;;;;;6.00;2.45;;;6.50;99.90;;;;;;5054277;28;20041;-69
2023/04/30 02:58:26;;;;;;;5.63;2.50;;;6.50;99.90;;;;;;5036452;28;20032;-69
2023/04/30 03:00:52;;;;;;;7.95;3.20;;;6.50;99.90;;;;;;5036054;28;20478;-69
2023/04/30 03:03:17;;;;;;;8.60;2.88;;;6.50;99.90;;;;;;5036086;28;20059;-69
2023/04/30 03:05:43;;;;;;;8.35;3.15;;;6.60;99.90;;;;;;5036068;28;20044;-69
2023/04/30 03:08:08;;;;;;;7.50;3.15;;;6.60;99.90;;;;;;5035985;28;20076;-69
2023/04/30 03:10:34;;;;;;;8.10;2.90;;;6.60;99.90;;;;;;5036223;28;20045;-69
2023/04/30 03:13:00;;;;;;;8.80;3.67;;;6.70;99.90;;;;;;5035884;28;20543;-69
2023/04/30 03:15:25;;;;;;;9.77;3.60;;;6.60;99.90;;;;;;5035912;28;20051;-69
2023/04/30 03:17:51;;;;;;;6.07;2.80;;;6.60;99.90;;;;;;5035704;28;20417;-70
2023/04/30 03:20:16;;;;;;;6.43;3.08;;;6.70;99.90;;;;;;5035781;28;20036;-70
2023/04/30 03:22:42;;;;;;;4.50;2.63;;;6.70;99.90;;;;;;5035759;28;20086;-70
2023/04/30 03:25:08;;;;;;;8.52;3.17;;;6.70;99.90;;;;;;5035732;28;20052;-70
2023/04/30 03:27:34;;;;;;;6.22;3.60;;;6.60;99.90;;;;;;5035551;28;20041;-70
2023/04/30 03:30:00;;;;;;;8.07;3.33;;;6.60;99.90;;;;;;5035596;28;20056;-70
2023/04/30 03:32:25;;;;;;;9.60;3.47;;;6.60;99.90;;;;;;5035533;28;20041;-70
2023/04/30 03:34:51;;;;;;;10.02;3.45;;;6.60;99.90;;;;;;5035493;28;20048;-70
2023/04/30 03:37:17;;;;;;;8.80;3.10;;;6.60;99.90;;;;;;5035466;28;20489;-70
2023/04/30 03:39:42;;;;;;;12.13;4.05;;;6.60;99.90;;;;;;5035744;28;20036;-70
2023/04/30 03:42:08;;;;;;;9.75;3.08;;;6.60;99.90;;;;;;5035436;28;20464;-70
2023/04/30 03:44:33;;;;;;;9.27;3.47;;;6.70;99.90;;;;;;5035603;28;20091;-70
2023/04/30 03:46:59;;;;;;;6.68;2.80;;;6.70;99.90;;;;;;5035230;28;20108;-70
2023/04/30 03:49:24;;;;;;;10.77;3.45;;;6.70;99.90;;;;;;5035595;28;20045;-70
2023/04/30 03:51:50;;;;;;;10.95;3.00;;;6.80;99.90;;;;;;5035331;28;20386;-70
2023/04/30 03:54:16;;;;;;;10.07;4.07;;;6.80;99.90;;;;;;5035190;28;20133;-70
2023/04/30 03:56:41;;;;;;;10.25;3.65;;;6.90;99.90;;;;;;5035110;28;20124;-70
2023/04/30 03:59:07;;;;;;;9.05;3.67;;;6.90;99.90;;;;;;5035174;28;20075;-70
2023/04/30 04:01:33;;;;;;;9.57;3.50;;;6.90;99.90;;;;;;5035220;28;20051;-70
2023/04/30 04:03:58;;;;;;;12.13;3.55;;;7.00;99.90;;;;;;5035073;28;20045;-70
2023/04/30 04:06:24;;;;;;;10.98;3.60;;;7.00;99.90;;;;;;5035226;28;20044;-70
2023/04/30 04:08:49;;;;;;;8.48;3.40;;;7.00;99.90;;;;;;5035061;28;20378;-70
2023/04/30 04:11:15;;;;;;;8.45;3.97;;;7.10;99.90;;;;;;5035275;28;20106;-70
2023/04/30 04:13:41;;;;;;;11.57;3.72;;;7.10;99.90;;;;;;5035129;28;20412;-70
2023/04/30 04:16:07;;;;;;;7.68;3.47;;;7.10;99.90;;;;;;5034998;28;20130;-70
2023/04/30 04:18:33;;;;;;;9.80;3.45;;;7.10;99.90;;;;;;5036313;28;20045;-70
2023/04/30 04:21:00;;;;;;;10.10;3.58;;;7.10;99.90;;;;;;5053104;28;20543;-70
2023/04/30 04:23:25;;;;;;;10.82;3.70;;;7.10;99.90;;;;;;5035219;28;20155;-70
2023/04/30 04:25:51;;;;;;;11.10;4.07;;;7.10;99.90;;;;;;5035248;28;20525;-70
2023/04/30 04:28:17;;;;;;;14.68;4.40;;;7.10;99.90;;;;;;5034815;28;20049;-70
2023/04/30 04:30:43;;;;;;;10.77;3.72;;;7.10;99.90;;;;;;5018737;28;20037;-70
2023/04/30 04:33:11;;;;;;;10.00;3.75;;;7.10;99.90;;;;;;5034817;28;20505;-70
2023/04/30 04:35:37;;;;;;;10.48;3.65;;;7.20;99.90;;;;;;5034765;28;20048;-70
2023/04/30 04:38:03;;;;;;;8.88;3.53;;;7.20;99.90;;;;;;5018256;28;20037;-70
2023/04/30 04:40:29;;;;;;;11.60;4.07;;;7.20;99.90;;;;;;5034785;28;20548;-70
2023/04/30 04:42:55;;;;;;;9.95;3.42;;;7.30;99.90;;;;;;5034847;28;20036;-70
2023/04/30 04:45:20;;;;;;;12.98;4.90;;;7.30;99.90;;;;;;5034767;28;20091;-70
2023/04/30 04:47:47;;;;;;;11.48;3.97;;;7.40;99.90;;;;;;5034499;28;20094;-70
2023/04/30 04:50:13;;;;;;;12.75;3.50;;;7.40;99.90;;;;;;5034653;28;20501;-70
2023/04/30 04:52:39;;;;;;;16.02;3.78;;;7.50;99.90;;;;;;5034947;28;20041;-70
2023/04/30 04:55:06;;;;;;;10.10;3.08;;;7.50;99.90;;;;;;5034577;28;20390;-70
2023/04/30 04:57:31;;;;;;;12.90;3.67;;;7.60;99.90;;;;;;5034523;28;20045;-70
2023/04/30 04:59:57;;;;;;;11.02;3.03;;;7.70;99.90;;;;;;5034625;28;20098;-70
2023/04/30 05:02:22;;;;;;;13.65;3.30;;;7.70;99.90;;;;;;5034649;28;20044;-70
2023/04/30 05:04:49;;;;;;;9.38;3.63;;;7.70;99.90;;;;;;5034636;28;20052;-70
2023/04/30 05:07:18;;;;;;;10.77;3.50;;;7.80;99.90;;;;;;5034536;28;20074;-70
2023/04/30 05:09:48;;;;;;;10.63;3.20;;;7.80;99.90;;;;;;5034552;28;20450;-70
2023/04/30 05:12:14;;;;;;;8.88;2.78;;;7.80;99.90;;;;;;5017950;28;20041;-70
2023/04/30 05:14:39;;;;;;;9.32;3.00;;;7.80;99.90;;;;;;5034656;28;20044;-70
2023/04/30 05:17:06;;;;;;;13.80;3.45;;;7.80;99.90;;;;;;5035914;28;20090;-70
2023/04/30 05:19:32;;;;;;;8.52;2.75;;;7.80;99.90;;;;;;5038053;28;20072;-70
2023/04/30 05:21:57;;;;;;;11.05;3.03;;;7.80;99.90;;;;;;5021610;28;20048;-70
2023/04/30 05:24:23;;;;;;;9.60;2.72;;;7.90;99.90;;;;;;5037906;28;20509;-70
2023/04/30 05:26:48;;;;;;;8.35;2.80;;;7.90;99.90;;;;;;5037833;28;20087;-70
2023/04/30 05:29:14;;;;;;;10.48;3.10;;;7.90;99.90;;;;;;5038423;28;20043;-70
2023/04/30 05:31:40;;;;;;;10.55;3.30;;;7.90;99.90;;;;;;5038094;28;20044;-70
2023/04/30 05:34:06;;;;;;;12.13;3.40;;;8.00;99.90;;;;;;5021268;28;20044;-70
2023/04/30 05:36:32;;;;;;;9.43;3.22;;;8.00;99.90;;;;;;5037652;28;20036;-70
2023/04/30 05:38:57;;;;;;;14.32;3.92;;;8.00;99.90;;;;;;5037984;28;20076;-70
2023/04/30 05:41:23;;;;;;;9.68;3.08;;;8.00;99.90;;;;;;5037675;28;20492;-70
2023/04/30 05:43:48;;;;;;;12.80;3.00;;;8.10;99.90;;;;;;5037963;28;20075;-70
2023/04/30 05:46:14;;;;;;;11.30;3.28;;;8.10;99.90;;;;;;5037735;28;20519;-70
2023/04/30 05:48:40;;;;;;;12.77;3.42;;;8.10;99.90;;;;;;5037714;28;20056;-70
2023/04/30 05:51:06;;;;;;;11.20;3.92;;;8.20;99.90;;;;;;5055378;28;20041;-70
2023/04/30 05:53:32;;;;;;;12.82;3.58;;;8.20;99.90;;;;;;5037432;28;20563;-70
2023/04/30 05:55:57;;;;;;;10.80;3.30;;;8.30;99.90;;;;;;5037319;28;20041;-69
2023/04/30 05:58:23;;;;;;;14.48;3.67;;;8.30;99.90;;;;;;5055165;28;20036;-70
2023/04/30 06:00:53;;;;;;;9.60;3.35;;;8.30;99.90;;;;;;5037242;28;20047;-70
2023/04/30 06:03:19;;;;;;;12.00;3.30;;;8.40;99.90;;;;;;5037491;28;20040;-70
2023/04/30 06:05:46;;;;;;;10.55;3.15;;;8.40;99.90;;;;;;5037191;28;20044;-70
2023/04/30 06:08:12;;;;;;;13.82;2.53;;;8.40;99.90;;;;;;5037355;28;20045;-70
2023/04/30 06:10:38;;;;;;;13.05;3.00;;;8.50;99.90;;;;;;5020661;28;20396;-70
2023/04/30 06:13:03;;;;;;;11.48;3.40;;;8.40;99.90;;;;;;5037010;28;20098;-70
2023/04/30 06:15:29;;;;;;;11.00;3.20;;;8.50;99.90;;;;;;5036918;28;20045;-70
2023/04/30 06:17:55;;;;;;;11.57;3.00;;;8.60;99.90;;;;;;5038008;28;20033;-70
2023/04/30 06:20:20;;;;;;;10.77;2.95;;;8.60;99.90;;;;;;5055405;28;20374;-70
2023/04/30 06:22:46;;;;;;;11.82;2.80;;;8.70;99.90;;;;;;5036930;28;20516;-70
2023/04/30 06:25:12;;;;;;;12.52;3.00;;;8.70;99.90;;;;;;5037111;28;20094;-69
2023/04/30 06:27:37;;;;;;;12.00;2.78;;;8.70;99.90;;;;;;5036822;28;20041;-69
2023/04/30 06:30:03;;;;;;;14.88;3.00;;;8.80;99.90;;;;;;5036795;28;20444;-70
2023/04/30 06:32:29;;;;;;;14.23;3.08;;;8.90;99.90;;;;;;5020216;28;20059;-69
2023/04/30 06:34:54;;;;;;;11.05;2.92;;;8.90;99.90;;;;;;5036748;28;20045;-69
2023/04/30 06:37:20;;;;;;;13.32;2.78;;;9.00;99.90;;;;;;5036630;28;20092;-69
2023/04/30 06:39:46;;;;;;;12.07;2.75;;;9.00;99.90;;;;;;5036793;28;20087;-69
2023/04/30 06:42:11;;;;;;;13.32;3.00;;;9.10;99.90;;;;;;5036666;28;20091;-69
2023/04/30 06:44:37;;;;;;;11.38;2.50;;;9.10;99.90;;;;;;5036501;28;20118;-69
2023/04/30 06:47:03;;;;;;;11.85;2.63;;;9.20;99.90;;;;;;5036277;28;20044;-70
2023/04/30 06:49:28;;;;;;;11.73;2.72;;;9.20;99.90;;;;;;5036487;28;20041;-69
2023/04/30 06:51:55;;;;;;;13.27;2.47;;;9.30;99.90;;;;;;5036386;28;20045;-69
2023/04/30 06:54:21;;;;;;;12.43;2.50;;;9.30;99.90;;;;;;5036646;28;20044;-69
2023/04/30 06:56:47;;;;;;;14.63;2.65;;;9.40;99.90;;;;;;5036466;28;20049;-69
2023/04/30 06:59:13;;;;;;;12.90;2.88;;;9.50;99.90;;;;;;5036219;28;20600;-69
2023/04/30 07:01:39;;;;;;;13.60;2.90;;;9.60;99.90;;;;;;5036412;28;20048;-69
2023/04/30 07:04:05;;;;;;;11.90;2.55;;;9.60;99.90;;;;;;5054009;28;20041;-69
2023/04/30 07:06:31;;;;;;;13.48;2.55;;;9.70;99.90;;;;;;5035966;28;20052;-69
2023/04/30 07:08:56;;;;;;;10.75;1.90;;;9.70;99.90;;;;;;5036314;28;20135;-69
2023/04/30 07:11:22;;;;;;;11.00;2.55;;;9.80;99.90;;;;;;5036245;28;20075;-69
2023/04/30 07:13:47;;;;;;;14.52;2.40;;;9.90;99.90;;;;;;5036214;28;20095;-70
2023/04/30 07:16:15;;;;;;;11.77;2.53;;;10.00;99.90;;;;;;5035900;28;20498;-69
2023/04/30 07:18:41;;;;;;;11.48;2.50;;;10.10;99.90;;;;;;5035759;28;20072;-69
2023/04/30 07:21:07;;;;;;;11.75;2.08;;;10.20;99.90;;;;;;5035771;28;20076;-69
2023/04/30 07:23:33;;;;;;;10.55;2.30;;;10.20;99.90;;;;;;5035761;28;20041;-69
2023/04/30 07:25:59;;;;;;;13.68;3.38;;;10.20;99.90;;;;;;5036125;28;20037;-70
2023/04/30 07:28:24;;;;;;;13.07;2.65;;;10.40;99.90;;;;;;5035611;28;20119;-69
2023/04/30 07:30:51;;;;;;;11.85;2.15;;;10.50;99.90;;;;;;5019279;28;20041;-69
2023/04/30 07:33:16;;;;;;;8.30;1.95;;;10.70;99.90;;;;;;5035599;28;20112;-69
2023/04/30 07:35:42;;;;;;;11.20;2.45;;;10.80;99.90;;;;;;5035621;28;20116;-69
2023/04/30 07:38:07;;;;;;;12.32;3.22;;;11.00;99.90;;;;;;5036153;28;20037;-69
2023/04/30 07:40:33;;;;;;;9.23;2.17;;;11.10;99.90;;;;;;5052920;28;20037;-69
2023/04/30 07:42:59;;;;;;;11.40;2.53;;;11.30;99.90;;;;;;5035838;28;20528;-69
2023/04/30 07:45:24;;;;;;;11.77;2.33;;;11.30;99.90;;;;;;5035488;28;20405;-69
2023/04/30 07:47:50;;;;;;;13.73;2.20;;;11.40;99.90;;;;;;5035260;28;20044;-69
2023/04/30 07:50:16;;;;;;;11.25;2.45;;;11.30;99.90;;;;;;5019017;28;20040;-69
2023/04/30 07:52:41;;;;;;;8.07;1.88;;;11.30;99.90;;;;;;5035536;28;20045;-69
2023/04/30 07:55:07;;;;;;;11.20;2.95;;;11.30;99.90;;;;;;5018714;28;20566;-70
2023/04/30 07:57:33;;;;;;;13.35;2.63;;;11.40;99.90;;;;;;5035271;28;20058;-69
2023/04/30 07:59:58;;;;;;;12.10;2.47;;;11.50;99.90;;;;;;5018866;28;20037;-69
2023/04/30 08:02:24;;;;;;;14.85;2.97;;;11.70;99.90;;;;;;5035232;28;20041;-69
2023/04/30 08:04:50;;;;;;;12.15;3.05;;;11.70;99.90;;;;;;5035506;28;20047;-69
2023/04/30 08:07:16;;;;;;;13.15;2.90;;;11.80;99.80;;;;;;5035159;28;20424;-70
2023/04/30 08:09:41;;;;;;;10.52;2.65;;;11.90;99.40;;;;;;5035110;28;20110;-69
2023/04/30 08:12:08;;;;;;;7.63;2.55;;;12.00;99.20;;;;;;5035122;28;20047;-69
2023/04/30 08:14:34;;;;;;;11.50;2.85;;;12.10;98.70;;;;;;5035290;28;20053;-69
2023/04/30 08:17:01;;;;;;;11.10;2.08;;;12.10;98.10;;;;;;5035052;28;20558;-69
2023/04/30 08:19:27;;;;;;;9.82;2.20;;;12.20;97.70;;;;;;5035315;28;20053;-70
2023/04/30 08:21:52;;;;;;;7.90;2.50;;;12.20;97.20;;;;;;5035068;28;20520;-70
2023/04/30 08:24:18;;;;;;;10.38;2.53;;;12.30;97.00;;;;;;5035143;28;20076;-70
2023/04/30 08:26:43;;;;;;;14.45;2.83;;;12.50;96.80;;;;;;5035400;28;20041;-70
2023/04/30 08:29:09;;;;;;;8.38;2.60;;;12.60;96.40;;;;;;5035255;28;20387;-70
2023/04/30 08:31:35;;;;;;;10.73;2.25;;;12.90;95.80;;;;;;5053101;28;20065;-70
2023/04/30 08:34:01;;;;;;;7.57;2.20;;;13.00;95.10;;;;;;5034945;28;20044;-70
2023/04/30 08:36:26;;;;;;;11.48;2.90;;;13.20;94.20;;;;;;5034827;28;20040;-70
2023/04/30 08:38:52;;;;;;;9.40;2.53;;;13.30;93.80;;;;;;5034885;28;20134;-70
2023/04/30 08:41:21;;;;;;;10.30;2.55;;;13.40;93.40;;;;;;5034875;28;20037;-70
2023/04/30 08:43:51;;;;;;;12.00;2.42;;;13.40;92.60;;;;;;5035074;28;20036;-70
2023/04/30 08:46:18;;;;;;;9.52;2.53;;;13.50;92.50;;;;;;5034743;28;20049;-70
2023/04/30 08:48:44;;;;;;;8.98;2.17;;;13.50;92.00;;;;;;5018227;28;20049;-70
2023/04/30 08:51:10;;;;;;;7.47;2.55;;;13.60;91.30;;;;;;5036383;28;20059;-70
2023/04/30 08:53:39;;;;;;;11.55;2.47;;;13.80;90.90;;;;;;5038851;28;20053;-69
2023/04/30 08:56:05;;;;;;;9.75;2.67;;;13.70;90.60;;;;;;5038536;28;20051;-69
2023/04/30 08:58:31;;;;;;;9.90;2.40;;;13.60;90.60;;;;;;5038469;28;20040;-69
2023/04/30 09:01:01;;;;;;;11.55;2.35;;;13.50;90.60;;;;;;5038729;28;20133;-69
2023/04/30 09:03:27;;;;;;;8.07;2.28;;;13.40;90.80;;;;;;5056247;28;20041;-70
2023/04/30 09:05:54;;;;;;;10.70;2.20;;;13.30;90.70;;;;;;5056528;28;20051;-69
2023/04/30 09:08:43;;;;;;;8.60;2.22;;;13.20;90.30;;;;;;5038539;28;20052;-69
2023/04/30 09:11:38;;;;;;;10.73;2.92;;;13.10;88.80;;;;;;5038642;28;20045;-69
2023/04/30 09:14:04;;;;;;;11.68;2.47;;;13.20;89.00;;;;;;4959118;28;20105;-69
2023/04/30 09:16:48;;;;;;;10.23;2.05;;;13.40;89.00;;;;;;4958753;28;20046;-69
2023/04/30 09:19:26;;;;;;;10.90;2.50;;;13.80;89.60;;;;;;4959294;28;20051;-69
2023/04/30 09:21:52;;;;;;;7.55;1.85;;;14.00;87.90;;;;;;4958967;28;20035;-68
2023/04/30 09:24:18;;;;;;;7.10;2.20;;;14.30;87.50;;;;;;4958960;28;20054;-68
2023/04/30 09:26:46;;;;;;;7.07;2.22;;;14.40;86.60;;;;;;4959030;28;20043;-68
2023/04/30 09:29:12;;;;;;;9.43;2.20;;;14.70;86.80;;;;;;4959074;28;20102;-68
2023/04/30 09:31:40;;;;;;;9.05;2.25;;;14.90;84.50;;;;;;4958748;28;20058;-68
2023/04/30 09:34:06;;;;;;;6.90;1.83;;;15.20;83.00;;;;;;4958740;28;20053;-68
2023/04/30 09:36:32;;;;;;;8.07;2.15;;;15.30;82.10;;;;;;4974677;28;20054;-69
2023/04/30 09:39:12;;;;;;;11.35;2.28;;;15.50;81.60;;;;;;4958817;28;20051;-73
2023/04/30 09:41:38;;;;;;;11.45;2.30;;;15.60;80.10;;;;;;4958667;28;20043;-70
2023/04/30 09:44:04;;;;;;;9.35;2.55;;;15.80;80.80;;;;;;4958494;28;20122;-70
2023/04/30 09:46:31;;;;;;;6.00;2.20;;;15.90;79.00;;;;;;4958629;28;20057;-70
2023/04/30 09:48:59;;;;;;;5.95;2.00;;;16.00;77.90;;;;;;4974624;28;20078;-70
2023/04/30 09:51:25;;;;;;;5.97;2.03;;;16.20;77.80;;;;;;5030009;28;20072;-70
2023/04/30 09:53:54;;;;;;;7.45;1.98;;;16.40;76.10;;;;;;5037860;28;20136;-70
2023/04/30 09:56:25;;;;;;;10.02;2.10;;;16.50;76.00;;;;;;5037335;28;20091;-70
2023/04/30 09:58:53;;;;;;;6.95;1.92;;;16.60;75.80;;;;;;5037570;28;20083;-70
2023/04/30 10:01:20;;;;;;;9.32;2.40;;;16.80;76.00;;;;;;5037368;28;20565;-70
2023/04/30 10:03:47;;;;;;;10.20;2.45;;;16.80;74.60;;;;;;5036988;28;20044;-70
2023/04/30 10:06:18;;;;;;;7.85;2.13;;;16.90;75.20;;;;;;5037277;28;20049;-70
2023/04/30 10:08:48;;;;;;;5.95;2.17;;;17.00;74.80;;;;;;5037546;28;20048;-70
2023/04/30 10:11:18;;;;;;;8.18;2.15;;;17.10;73.20;;;;;;5021791;28;20059;-70
2023/04/30 10:14:02;;;;;;;5.28;2.00;;;17.20;73.20;;;;;;5054993;28;20083;-70
2023/04/30 10:16:52;;;;;;;7.38;2.20;;;17.40;70.40;;;;;;5036996;28;20071;-72
2023/04/30 10:19:29;;;;;;;4.63;1.70;;;17.50;69.00;;;;;;5037147;28;20064;-72
2023/04/30 10:21:55;;;;;;;6.20;1.60;;;17.60;71.00;;;;;;5037061;28;20041;-72
2023/04/30 10:24:21;;;;;;;7.75;1.85;;;17.70;71.10;;;;;;5037184;28;20102;-72
2023/04/30 10:26:47;;;;;;;7.03;1.85;;;17.80;70.20;;;;;;5036793;28;20452;-72
2023/04/30 10:29:15;;;;;;;6.80;1.90;;;17.80;69.40;;;;;;5037190;28;20045;-72
2023/04/30 10:31:45;;;;;;;5.10;1.90;;;17.80;68.60;;;;;;5036973;28;20098;-72
2023/04/30 10:34:32;;;;;;;5.30;1.73;;;17.90;69.10;;;;;;5037070;28;20049;-72
2023/04/30 10:37:03;;;;;;;7.68;2.00;;;18.00;69.30;;;;;;5020434;28;20048;-72
2023/04/30 10:39:30;;;;;;;5.50;2.00;;;18.30;69.70;;;;;;5054575;28;20037;-72
2023/04/30 10:42:08;;;;;;;7.13;2.20;;;18.40;68.30;;;;;;5036600;28;20166;-72
2023/04/30 10:44:37;;;;;;;7.00;2.10;;;18.60;67.70;;;;;;5036528;28;20124;-72
2023/04/30 10:47:06;;;;;;;6.10;2.00;;;18.70;67.90;;;;;;5036254;28;20425;-72
2023/04/30 10:49:32;;;;;;;6.32;1.67;;;18.80;67.70;;;;;;5036444;28;20041;-72
2023/04/30 10:52:04;;;;;;;7.65;2.20;;;18.90;67.50;;;;;;5036356;28;20120;-72
2023/04/30 10:54:33;;;;;;;6.80;2.00;;;19.00;66.30;;;;;;5020131;28;20036;-72
2023/04/30 10:57:10;;;;;;;5.25;1.80;;;19.00;66.50;;;;;;5036483;28;20044;-72
2023/04/30 10:59:36;;;;;;;6.47;1.70;;;19.30;66.50;;;;;;5036196;28;20041;-74
2023/04/30 11:02:02;;;;;;;5.38;1.73;;;19.50;65.80;;;;;;5036289;28;20091;-73
2023/04/30 11:04:27;;;;;;;5.07;1.65;;;19.50;65.50;;;;;;5036444;28;20124;-73
2023/04/30 11:07:09;;;;;;;6.45;1.98;;;19.50;65.20;;;;;;5036506;28;20033;-73
2023/04/30 11:09:38;;;;;;;4.47;1.20;;;19.60;64.30;;;;;;5036022;28;20095;-73
2023/04/30 11:12:18;;;;;;;4.95;1.60;;;19.70;64.20;;;;;;5035933;28;20090;-72
2023/04/30 11:14:45;;;;;;;9.32;2.03;;;19.90;64.70;;;;;;5035233;28;20501;-73
2023/04/30 11:17:28;;;;;;;3.45;1.40;;;20.00;64.80;;;;;;5035828;28;20040;-73
2023/04/30 11:20:02;;;;;;;3.42;1.20;;;20.20;64.20;;;;;;5035856;28;20523;-72
2023/04/30 11:22:34;;;;;;;5.88;1.40;;;20.20;64.00;;;;;;5035976;28;20572;-72
2023/04/30 11:25:04;;;;;;;3.17;1.30;;;20.30;63.90;;;;;;5054600;28;20045;-72
2023/04/30 11:27:35;;;;;;;2.47;0.95;;;20.30;62.80;;;;;;5020868;28;20448;-72
2023/04/30 11:30:03;;;;;;;3.90;1.40;;;20.40;63.90;;;;;;5035671;28;20505;-72
2023/04/30 11:32:34;;;;;;;2.85;1.40;;;20.70;64.50;;;;;;5035625;28;20063;-72
2023/04/30 11:35:04;;;;;;;5.43;1.40;;;20.50;61.60;;;;;;5019172;28;20087;-70
2023/04/30 11:37:37;;;;;;;2.80;1.33;;;20.20;61.70;;;;;;5035483;28;20084;-70
2023/04/30 11:40:09;;;;;;;3.72;1.20;;;20.30;62.20;;;;;;5035510;28;20044;-70
2023/04/30 11:42:38;;;;;;;4.85;1.20;;;20.60;62.30;;;;;;5035586;28;20048;-70
2023/04/30 11:45:22;;;;;;;3.85;1.48;;;20.70;61.90;;;;;;5035709;28;20041;-70
2023/04/30 11:47:49;;;;;;;4.15;1.40;;;21.00;60.00;;;;;;5035292;28;20558;-70
2023/04/30 11:50:26;;;;;;;4.78;1.42;;;21.10;60.60;;;;;;5035402;28;20036;-70
2023/04/30 11:52:52;;;;;;;4.20;1.27;;;21.20;59.70;;;;;;5035547;28;20045;-70
2023/04/30 11:55:27;;;;;;;4.38;1.20;;;21.30;59.90;;;;;;5035204;28;20049;-70
2023/04/30 11:57:57;;;;;;;4.03;1.27;;;21.30;58.70;;;;;;5035732;28;20111;-70
2023/04/30 12:00:28;;;;;;;3.38;1.50;;;20.80;59.00;;;;;;5035438;28;20045;-71
2023/04/30 12:02:54;;;;;;;3.92;1.45;;;20.90;61.00;;;;;;5035427;28;20045;-70
2023/04/30 12:05:22;;;;;;;5.63;1.55;;;21.00;60.20;;;;;;5035469;28;20068;-70
2023/04/30 12:08:11;;;;;;;8.10;1.70;;;21.10;59.70;;;;;;5035057;28;20127;-70
2023/04/30 12:10:36;;;;;;;7.13;1.65;;;21.30;59.30;;;;;;5035435;28;20053;-71
2023/04/30 12:13:02;;;;;;;6.47;1.60;;;21.50;58.80;;;;;;5052923;28;20497;-71
2023/04/30 12:15:28;;;;;;;5.63;1.42;;;21.60;58.80;;;;;;5035181;28;20049;-71
2023/04/30 12:17:58;;;;;;;4.45;1.65;;;21.50;57.40;;;;;;5034993;28;20112;-71
2023/04/30 12:20:27;;;;;;;7.32;2.35;;;21.60;57.70;;;;;;5018700;28;20033;-71
2023/04/30 12:22:53;;;;;;;7.28;1.55;;;21.70;58.10;;;;;;5035102;28;20041;-70
2023/04/30 12:25:20;;;;;;;5.50;1.77;;;21.80;57.60;;;;;;5035176;28;20157;-70
2023/04/30 12:27:58;;;;;;;6.22;1.98;;;21.50;57.50;;;;;;5039296;28;20528;-70
2023/04/30 12:30:28;;;;;;;8.20;1.80;;;21.50;57.10;;;;;;5039109;28;20158;-70
2023/04/30 12:32:58;;;;;;;4.55;1.77;;;21.60;58.20;;;;;;5039010;28;20501;-70
2023/04/30 12:35:26;;;;;;;5.28;1.73;;;21.60;57.40;;;;;;5038902;28;20049;-70
2023/04/30 12:38:01;;;;;;;3.83;1.38;;;21.70;57.40;;;;;;5038918;28;20037;-71
2023/04/30 12:40:27;;;;;;;5.22;2.03;;;21.80;56.30;;;;;;5038922;28;20099;-71
2023/04/30 12:43:04;;;;;;;2.95;1.40;;;21.70;55.90;;;;;;5039002;28;20036;-71
2023/04/30 12:45:44;;;;;;;7.32;1.73;;;21.80;55.40;;;;;;5038723;28;20506;-71
2023/04/30 12:48:10;;;;;;;6.43;1.92;;;21.90;56.40;;;;;;5039138;28;20041;-71
2023/04/30 12:50:37;;;;;;;3.47;1.20;;;22.00;57.50;;;;;;5038686;28;20098;-71
2023/04/30 12:53:03;;;;;;;6.35;2.00;;;22.00;57.30;;;;;;5038596;28;20059;-71